Time;durP1;ratioP1;P1;durP2;ratioP2;P2;SDS_P1;SDS_P2;PMS_P1;PMS_P2;Temp;Humidity;BMP_temperature;BMP_pressure;BME280_temperature;BME280_humidity;BME280_pressure;Samples;Min_cycle;Max_cycle;Signal;HPM_P1;HPM_P2
2021/12/03 00:01:46;;;;;;;;;;;;;;;;;;5094353;28;19978;-74
2021/12/03 00:04:12;;;;;;;;;;;;;;;;;;5094353;28;19943;-73
2021/12/03 00:06:38;;;;;;;;;;;;;;;;;;5094666;28;20355;-70
2021/12/03 00:09:04;;;;;;;;;;;;;;;;;;5094557;28;19904;-72
2021/12/03 00:11:30;;;;;;;;;;;;;;;;;;5076367;28;20434;-68
2021/12/03 00:13:56;;;;;;;;;;;;;;;;;;5094356;28;19998;-65
2021/12/03 00:16:22;;;;;;;;;;;;;;;;;;5094015;28;19939;-65
2021/12/03 00:18:48;;;;;;;;;;;;;;;;;;5076056;28;19949;-64
2021/12/03 00:21:14;;;;;;;;;;;;;;;;;;5094304;28;19904;-66
2021/12/03 00:23:40;;;;;;;;;;;;;;;;;;5093809;28;19903;-64
2021/12/03 00:26:06;;;;;;;;;;;;;;;;;;5080474;28;19907;-64
2021/12/03 00:28:31;;;;;;;;;;;;;;;;;;5095334;28;20002;-70
2021/12/03 00:30:57;;;;;;;;;;;;;;;;;;5113578;28;19986;-65
2021/12/03 00:33:23;;;;;;;;;;;;;;;;;;5095372;28;20386;-65
2021/12/03 00:35:51;;;;;;;;;;;;;;;;;;5114087;28;19959;-62
2021/12/03 00:38:17;;;;;;;;;;;;;;;;;;5113832;28;19904;-64
2021/12/03 00:40:43;;;;;;;;;;;;;;;;;;5114312;28;19904;-64
2021/12/03 00:43:09;;;;;;;;;;;;;;;;;;5091949;28;20293;-64
2021/12/03 00:45:35;;;;;;;;;;;;;;;;;;5113755;28;19907;-67
2021/12/03 00:48:01;;;;;;;;;;;;;;;;;;5095297;28;19923;-68
2021/12/03 00:50:27;;;;;;;;;;;;;;;;;;5111390;28;20461;-64
2021/12/03 00:52:53;;;;;;;;;;;;;;;;;;5113086;28;20396;-65
2021/12/03 00:55:19;;;;;;;;;;;;;;;;;;5095258;28;19927;-71
2021/12/03 00:57:45;;;;;;;;;;;;;;;;;;5093697;28;19908;-63
2021/12/03 01:00:11;;;;;;;;;;;;;;;;;;5107450;28;19900;-64
2021/12/03 01:02:37;;;;;;;;;;;;;;;;;;5113279;28;20282;-63
2021/12/03 01:05:02;;;;;;;;;;;;;;;;;;5113944;28;20480;-66
2021/12/03 01:07:28;;;;;;;;;;;;;;;;;;5113564;28;19995;-67
2021/12/03 01:09:54;;;;;;;;;;;;;;;;;;5113574;28;20350;-63
2021/12/03 01:12:20;;;;;;;;;;;;;;;;;;5112918;28;19998;-69
2021/12/03 01:14:46;;;;;;;;;;;;;;;;;;5112752;28;20006;-67
2021/12/03 01:17:12;;;;;;;;;;;;;;;;;;5113178;28;19998;-64
2021/12/03 01:19:38;;;;;;;;;;;;;;;;;;5113106;28;19986;-70
2021/12/03 01:22:04;;;;;;;;;;;;;;;;;;5094775;28;20343;-63
2021/12/03 01:24:30;;;;;;;;;;;;;;;;;;5094542;28;19907;-66
2021/12/03 01:26:56;;;;;;;;;;;;;;;;;;5112844;28;20306;-66
2021/12/03 01:29:22;;;;;;;;;;;;;;;;;;5112896;28;19904;-70
2021/12/03 01:31:47;;;;;;;;;;;;;;;;;;5107251;28;19912;-65
2021/12/03 01:34:15;;;;;;;;;;;;;;;;;;5092384;28;19911;-69
2021/12/03 01:36:40;;;;;;;;;;;;;;;;;;5073905;28;20244;-65
2021/12/03 01:39:07;;;;;;;;;;;;;;;;;;5092817;28;20386;-72
2021/12/03 01:41:33;;;;;;;;;;;;;;;;;;5092835;28;19904;-68
2021/12/03 01:44:01;;;;;;;;;;;;;;;;;;5095942;28;20045;-63
2021/12/03 01:46:27;;;;;;;;;;;;;;;;;;5113369;28;19912;-70
2021/12/03 01:48:53;;;;;;;;;;;;;;;;;;5104164;28;20397;-68
2021/12/03 01:51:19;;;;;;;;;;;;;;;;;;5092198;28;20286;-67
2021/12/03 01:53:45;;;;;;;;;;;;;;;;;;5091523;28;19908;-63
2021/12/03 01:56:11;;;;;;;;;;;;;;;;;;5074367;28;19916;-65
2021/12/03 01:58:37;;;;;;;;;;;;;;;;;;5092601;28;19908;-64
2021/12/03 02:01:03;;;;;;;;;;;;;;;;;;5092338;28;19904;-63
2021/12/03 02:03:29;;;;;;;;;;;;;;;;;;5092171;28;19915;-63
2021/12/03 02:05:55;;;;;;;;;;;;;;;;;;5092068;28;20415;-64
2021/12/03 02:08:21;;;;;;;;;;;;;;;;;;5092104;28;19943;-67
2021/12/03 02:10:47;;;;;;;;;;;;;;;;;;5074274;28;19939;-63
2021/12/03 02:13:13;;;;;;;;;;;;;;;;;;5092621;28;19951;-65
2021/12/03 02:15:38;;;;;;;;;;;;;;;;;;5091843;28;19912;-63
2021/12/03 02:18:04;;;;;;;;;;;;;;;;;;5073920;28;19904;-63
2021/12/03 02:20:30;;;;;;;;;;;;;;;;;;5091824;28;19904;-65
2021/12/03 02:22:56;;;;;;;;;;;;;;;;;;5091739;28;20231;-62
2021/12/03 02:25:22;;;;;;;;;;;;;;;;;;5091997;28;19910;-65
2021/12/03 02:27:48;;;;;;;;;;;;;;;;;;5092056;28;19904;-64
2021/12/03 02:30:14;;;;;;;;;;;;;;;;;;5091955;28;19930;-66
2021/12/03 02:32:40;;;;;;;;;;;;;;;;;;5091989;28;19908;-63
2021/12/03 02:35:06;;;;;;;;;;;;;;;;;;5091755;28;19912;-63
2021/12/03 02:37:32;;;;;;;;;;;;;;;;;;5091992;28;19964;-67
2021/12/03 02:39:58;;;;;;;;;;;;;;;;;;5091932;28;19947;-69
2021/12/03 02:42:24;;;;;;;;;;;;;;;;;;5091903;28;19951;-75
2021/12/03 02:44:50;;;;;;;;;;;;;;;;;;5091912;28;19904;-66
2021/12/03 02:47:15;;;;;;;;;;;;;;;;;;5073066;28;19917;-65
2021/12/03 02:49:41;;;;;;;;;;;;;;;;;;5091143;28;20248;-71
2021/12/03 02:52:07;;;;;;;;;;;;;;;;;;5089660;28;20369;-64
2021/12/03 02:54:33;;;;;;;;;;;;;;;;;;5091529;28;19911;-64
2021/12/03 02:56:59;;;;;;;;;;;;;;;;;;5091724;28;20347;-63
2021/12/03 02:59:25;;;;;;;;;;;;;;;;;;5091755;28;19991;-69
2021/12/03 03:01:51;;;;;;;;;;;;;;;;;;5091822;28;20003;-64
2021/12/03 03:04:17;;;;;;;;;;;;;;;;;;5091883;28;19998;-69
2021/12/03 03:06:43;;;;;;;;;;;;;;;;;;5094241;28;20319;-69
2021/12/03 03:09:11;;;;;;;;;;;;;;;;;;5095834;28;20359;-71
2021/12/03 03:11:37;;;;;;;;;;;;;;;;;;5092758;28;20274;-63
2021/12/03 03:14:03;;;;;;;;;;;;;;;;;;5075898;28;19991;-71
2021/12/03 03:16:29;;;;;;;;;;;;;;;;;;5074868;28;19912;-62
2021/12/03 03:18:55;;;;;;;;;;;;;;;;;;5074808;28;20006;-71
2021/12/03 03:21:20;;;;;;;;;;;;;;;;;;5074946;28;19987;-69
2021/12/03 03:23:46;;;;;;;;;;;;;;;;;;5075077;28;20572;-62
2021/12/03 03:26:12;;;;;;;;;;;;;;;;;;5074872;28;19987;-63
2021/12/03 03:28:40;;;;;;;;;;;;;;;;;;5075035;28;20003;-63
2021/12/03 03:31:06;;;;;;;;;;;;;;;;;;5074710;28;20002;-68
2021/12/03 03:33:32;;;;;;;;;;;;;;;;;;5073451;28;20516;-70
2021/12/03 03:35:57;;;;;;;;;;;;;;;;;;5074844;28;19978;-74
2021/12/03 03:38:23;;;;;;;;;;;;;;;;;;5074876;28;19963;-63
2021/12/03 03:40:49;;;;;;;;;;;;;;;;;;5074458;28;20305;-67
2021/12/03 03:43:15;;;;;;;;;;;;;;;;;;5073072;28;19900;-66
2021/12/03 03:45:41;;;;;;;;;;;;;;;;;;5074389;28;20038;-64
2021/12/03 03:48:07;;;;;;;;;;;;;;;;;;5093532;28;19923;-65
2021/12/03 03:50:33;;;;;;;;;;;;;;;;;;5094799;28;20390;-62
2021/12/03 03:52:59;;;;;;;;;;;;;;;;;;5094790;28;19911;-72
2021/12/03 03:55:25;;;;;;;;;;;;;;;;;;5095225;28;19912;-73
2021/12/03 03:57:51;;;;;;;;;;;;;;;;;;5095178;28;19908;-69
2021/12/03 04:00:17;;;;;;;;;;;;;;;;;;5095174;28;19904;-64
2021/12/03 04:02:42;;;;;;;;;;;;;;;;;;5095214;28;19904;-70
2021/12/03 04:05:08;;;;;;;;;;;;;;;;;;5095181;28;20189;-67
2021/12/03 04:07:34;;;;;;;;;;;;;;;;;;5095123;28;19965;-72
2021/12/03 04:10:00;;;;;;;;;;;;;;;;;;5094956;28;20347;-67
2021/12/03 04:12:26;;;;;;;;;;;;;;;;;;5094917;28;19904;-71
2021/12/03 04:14:52;;;;;;;;;;;;;;;;;;5076745;28;20702;-70
2021/12/03 04:17:18;;;;;;;;;;;;;;;;;;5094550;28;19957;-70
2021/12/03 04:19:44;;;;;;;;;;;;;;;;;;5094676;28;19948;-62
2021/12/03 04:22:14;;;;;;;;;;;;;;;;;;5094198;28;19991;-64
2021/12/03 04:24:40;;;;;;;;;;;;;;;;;;5075958;28;19911;-67
2021/12/03 04:27:06;;;;;;;;;;;;;;;;;;5094209;28;19904;-64
2021/12/03 04:29:32;;;;;;;;;;;;;;;;;;5076065;28;19912;-71
2021/12/03 04:31:58;;;;;;;;;;;;;;;;;;5093959;28;19908;-63
2021/12/03 04:34:24;;;;;;;;;;;;;;;;;;5094006;28;20531;-67
2021/12/03 04:36:50;;;;;;;;;;;;;;;;;;5093855;28;19912;-70
2021/12/03 04:39:16;;;;;;;;;;;;;;;;;;5093822;28;19911;-67
2021/12/03 04:41:42;;;;;;;;;;;;;;;;;;5105183;27;20246;-69
2021/12/03 04:44:08;;;;;;;;;;;;;;;;;;5114056;28;19910;-66
2021/12/03 04:46:34;;;;;;;;;;;;;;;;;;5113888;28;20418;-65
2021/12/03 04:48:59;;;;;;;;;;;;;;;;;;5095758;28;19911;-67
2021/12/03 04:51:25;;;;;;;;;;;;;;;;;;5114124;28;19904;-65
2021/12/03 04:53:51;;;;;;;;;;;;;;;;;;5095595;28;19904;-71
2021/12/03 04:56:17;;;;;;;;;;;;;;;;;;5113690;28;19911;-74
2021/12/03 04:58:43;;;;;;;;;;;;;;;;;;5113888;28;20347;-67
2021/12/03 05:01:09;;;;;;;;;;;;;;;;;;5113741;28;19974;-67
2021/12/03 05:03:37;;;;;;;;;;;;;;;;;;5113952;28;19907;-69
2021/12/03 05:06:03;;;;;;;;;;;;;;;;;;5113931;28;19907;-75
2021/12/03 05:08:29;;;;;;;;;;;;;;;;;;5113810;28;19904;-72
2021/12/03 05:10:55;;;;;;;;;;;;;;;;;;5113970;28;19904;-76
2021/12/03 05:13:21;;;;;;;;;;;;;;;;;;5113699;28;19903;-69
2021/12/03 05:15:47;;;;;;;;;;;;;;;;;;5113603;28;19955;-64
2021/12/03 05:18:13;;;;;;;;;;;;;;;;;;5113519;28;19950;-68
2021/12/03 05:20:39;;;;;;;;;;;;;;;;;;5113388;28;19910;-76
2021/12/03 05:23:05;;;;;;;;;;;;;;;;;;5113637;28;20270;-64
2021/12/03 05:25:31;;;;;;;;;;;;;;;;;;5113300;28;20002;-69
2021/12/03 05:27:57;;;;;;;;;;;;;;;;;;5113407;28;19907;-69
2021/12/03 05:30:23;;;;;;;;;;;;;;;;;;5112986;28;19904;-67
2021/12/03 05:32:48;;;;;;;;;;;;;;;;;;5095308;28;19958;-71
2021/12/03 05:35:14;;;;;;;;;;;;;;;;;;5113507;28;20014;-66
2021/12/03 05:37:40;;;;;;;;;;;;;;;;;;5113776;28;19986;-66
2021/12/03 05:40:06;;;;;;;;;;;;;;;;;;5095172;28;20371;-64
2021/12/03 05:42:32;;;;;;;;;;;;;;;;;;5113781;28;20391;-65
2021/12/03 05:44:58;;;;;;;;;;;;;;;;;;5095561;28;19907;-75
2021/12/03 05:47:24;;;;;;;;;;;;;;;;;;5113426;28;20006;-68
2021/12/03 05:49:50;;;;;;;;;;;;;;;;;;5104146;28;19955;-66
2021/12/03 05:52:16;;;;;;;;;;;;;;;;;;5092835;28;20385;-74
2021/12/03 05:54:42;;;;;;;;;;;;;;;;;;5074448;28;19939;-72
2021/12/03 05:57:08;;;;;;;;;;;;;;;;;;5092614;28;19946;-66
2021/12/03 05:59:34;;;;;;;;;;;;;;;;;;5074134;28;19999;-70
2021/12/03 06:02:00;;;;;;;;;;;;;;;;;;5092410;28;19911;-72
2021/12/03 06:04:27;;;;;;;;;;;;;;;;;;5092199;28;19908;-71
2021/12/03 06:06:53;;;;;;;;;;;;;;;;;;5074157;28;19911;-64
2021/12/03 06:09:19;;;;;;;;;;;;;;;;;;5091922;28;19904;-66
2021/12/03 06:11:45;;;;;;;;;;;;;;;;;;5095857;28;19907;-64
2021/12/03 06:14:11;;;;;;;;;;;;;;;;;;5092003;28;20375;-68
2021/12/03 06:16:37;;;;;;;;;;;;;;;;;;5092043;28;20489;-64
2021/12/03 06:19:02;;;;;;;;;;;;;;;;;;5092374;28;19904;-74
2021/12/03 06:21:28;;;;;;;;;;;;;;;;;;5074622;28;19904;-68
2021/12/03 06:23:54;;;;;;;;;;;;;;;;;;5074366;28;19904;-66
2021/12/03 06:26:20;;;;;;;;;;;;;;;;;;5092364;28;19919;-69
2021/12/03 06:28:46;;;;;;;;;;;;;;;;;;5092234;28;20258;-63
2021/12/03 06:31:12;;;;;;;;;;;;;;;;;;5091951;28;19904;-70
2021/12/03 06:33:38;;;;;;;;;;;;;;;;;;5091879;28;19904;-65
2021/12/03 06:36:04;;;;;;;;;;;;;;;;;;5073569;28;20393;-65
2021/12/03 06:38:31;;;;;;;;;;;;;;;;;;5091773;28;20267;-73
2021/12/03 06:40:57;;;;;;;;;;;;;;;;;;5093991;28;19911;-72
2021/12/03 06:43:23;;;;;;;;;;;;;;;;;;5095819;28;19994;-72
2021/12/03 06:45:49;;;;;;;;;;;;;;;;;;5095814;28;19994;-72
2021/12/03 06:48:14;;;;;;;;;;;;;;;;;;5095918;28;19916;-74
2021/12/03 06:50:42;;;;;;;;;;;;;;;;;;5077626;28;20237;-67
2021/12/03 06:53:11;;;;;;;;;;;;;;;;;;5096063;28;19904;-66
2021/12/03 06:55:47;;;;;;;;;;;;;;;;;;5077542;28;20347;-66
2021/12/03 06:58:13;;;;;;;;;;;;;;;;;;5077363;28;19911;-70
2021/12/03 07:00:39;;;;;;;;;;;;;;;;;;5095774;28;19949;-69
2021/12/03 07:03:05;;;;;;;;;;;;;;;;;;5095717;28;19904;-66
2021/12/03 07:05:31;;;;;;;;;;;;;;;;;;5095672;28;19911;-65
2021/12/03 07:07:57;;;;;;;;;;;;;;;;;;5095759;28;19904;-69
2021/12/03 07:10:23;;;;;;;;;;;;;;;;;;5095643;28;19985;-71
2021/12/03 07:12:49;;;;;;;;;;;;;;;;;;5095549;28;19988;-72
2021/12/03 07:15:15;;;;;;;;;;;;;;;;;;5095230;28;19999;-69
2021/12/03 07:17:41;;;;;;;;;;;;;;;;;;5095125;28;19904;-74
2021/12/03 07:20:07;;;;;;;;;;;;;;;;;;5094946;28;19904;-67
2021/12/03 07:22:33;;;;;;;;;;;;;;;;;;5095308;28;19996;-72
2021/12/03 07:24:59;;;;;;;;;;;;;;;;;;5095616;28;20278;-69
2021/12/03 07:27:25;;;;;;;;;;;;;;;;;;5077658;28;19928;-76
2021/12/03 07:29:51;;;;;;;;;;;;;;;;;;5095286;28;19904;-77
2021/12/03 07:32:17;;;;;;;;;;;;;;;;;;5077078;28;19905;-64
2021/12/03 07:34:43;;;;;;;;;;;;;;;;;;5094967;28;20393;-64
2021/12/03 07:37:08;;;;;;;;;;;;;;;;;;5095185;28;19947;-74
2021/12/03 07:39:34;;;;;;;;;;;;;;;;;;5095234;28;20274;-75
2021/12/03 07:42:00;;;;;;;;;;;;;;;;;;5076712;28;19904;-71
2021/12/03 07:44:26;;;;;;;;;;;;;;;;;;5094781;28;19904;-74
2021/12/03 07:46:52;;;;;;;;;;;;;;;;;;5094775;28;20350;-70
2021/12/03 07:49:20;;;;;;;;;;;;;;;;;;5094748;28;20062;-72
2021/12/03 07:51:45;;;;;;;;;;;;;;;;;;5075976;28;19908;-69
2021/12/03 07:54:11;;;;;;;;;;;;;;;;;;5098267;28;20385;-61
2021/12/03 07:56:37;;;;;;;;;;;;;;;;;;5094697;28;20006;-70
2021/12/03 07:59:03;;;;;;;;;;;;;;;;;;5094478;28;20003;-64
2021/12/03 08:01:29;;;;;;;;;;;;;;;;;;5094562;28;20049;-63
2021/12/03 08:03:55;;;;;;;;;;;;;;;;;;5094685;28;19911;-63
2021/12/03 08:06:21;;;;;;;;;;;;;;;;;;5094444;28;19956;-63
2021/12/03 08:08:47;;;;;;;;;;;;;;;;;;5097975;28;19958;-64
2021/12/03 08:11:13;;;;;;;;;;;;;;;;;;5114933;28;20291;-63
2021/12/03 08:13:39;;;;;;;;;;;;;;;;;;5114921;28;19903;-68
2021/12/03 08:16:05;;;;;;;;;;;;;;;;;;5114603;28;19911;-62
2021/12/03 08:18:31;;;;;;;;;;;;;;;;;;5114493;28;19903;-63
2021/12/03 08:20:57;;;;;;;;;;;;;;;;;;5113048;28;19935;-63
2021/12/03 08:23:23;;;;;;;;;;;;;;;;;;5114550;28;19910;-79
2021/12/03 08:25:49;;;;;;;;;;;;;;;;;;5114464;28;19908;-67
2021/12/03 08:28:14;;;;;;;;;;;;;;;;;;5095349;28;19907;-63
2021/12/03 08:30:40;;;;;;;;;;;;;;;;;;5114206;28;20012;-63
2021/12/03 08:33:06;;;;;;;;;;;;;;;;;;5114298;28;19904;-76
2021/12/03 08:35:32;;;;;;;;;;;;;;;;;;5114438;28;19912;-76
2021/12/03 08:37:58;;;;;;;;;;;;;;;;;;5114208;28;20451;-73
2021/12/03 08:40:24;;;;;;;;;;;;;;;;;;5114147;28;19907;-67
2021/12/03 08:42:50;;;;;;;;;;;;;;;;;;5114065;28;19918;-73
2021/12/03 08:45:17;;;;;;;;;;;;;;;;;;5114317;28;19904;-72
2021/12/03 08:47:46;;;;;;;;;;;;;;;;;;5114193;28;19958;-71
2021/12/03 08:50:15;;;;;;;;;;;;;;;;;;5101682;28;19908;-71
2021/12/03 08:55:19;;;;;;;;;;;;;;;;;;5093586;28;19912;-64
2021/12/03 08:57:45;;;;;;;;;;;;;;;;;;5093367;28;19973;-72
2021/12/03 09:00:12;;;;;;;;;;;;;;;;;;5075198;28;19951;-68
2021/12/03 09:02:38;;;;;;;;;;;;;;;;;;5093359;28;19908;-68
2021/12/03 09:05:03;;;;;;;;;;;;;;;;;;5092328;28;19911;-67
2021/12/03 09:07:29;;;;;;;;;;;;;;;;;;5093253;28;19907;-65
2021/12/03 09:09:55;;;;;;;;;;;;;;;;;;5093137;28;19904;-63
2021/12/03 09:12:21;;;;;;;;;;;;;;;;;;5092858;28;19927;-64
2021/12/03 09:14:54;;;;;;;;;;;;;;;;;;5074770;28;19929;-66
2021/12/03 09:25:34;;;;;;;;;;;;;;;;;;5058469;28;20389;-65
2021/12/03 09:28:02;;;;;;;;;;;;;;;;;;5093181;28;19908;-67
2021/12/03 09:30:35;;;;;;;;;;;;;;;;;;5092467;28;19986;-62
2021/12/03 09:33:01;;;;;;;;;;;;;;;;;;5095239;27;20350;-65
2021/12/03 09:35:29;;;;;;;;;;;;;;;;;;5102217;28;19923;-62
2021/12/03 09:37:55;;;;;;;;;;;;;;;;;;5105657;28;19903;-63
2021/12/03 09:40:24;;;;;;;;;;;;;;;;;;5085784;28;19956;-64
2021/12/03 09:42:49;;;;;;;;;;;;;;;;;;5092474;28;19904;-63
2021/12/03 09:45:15;;;;;;;;;;;;;;;;;;5100470;28;19929;-62
2021/12/03 09:47:41;;;;;;;;;;;;;;;;;;5102898;28;20362;-68
2021/12/03 09:50:13;;;;;;;;;;;;;;;;;;5108844;28;19979;-72
2021/12/03 09:55:17;;;;;;;;;;;;;;;;;;5112028;28;19912;-75
2021/12/03 09:58:00;;;;;;;;;;;;;;;;;;5099561;28;19907;-77
2021/12/03 10:13:10;;;;;;;;;;;;;;;;;;5111206;28;19903;-72
2021/12/03 10:15:38;;;;;;;;;;;;;;;;;;5109105;28;19918;-71
2021/12/03 10:18:20;;;;;;;;;;;;;;;;;;5111621;28;19903;-74
2021/12/03 10:21:07;;;;;;;;;;;;;;;;;;5102178;28;20373;-74
2021/12/03 10:41:54;;;;;;;;;;;;;;;;;;5109656;28;19960;-69
2021/12/03 11:07:20;;;;;;;;;;;;;;;;;;5089896;28;19904;-66
2021/12/03 11:33:36;;;;;;;;;;;;;;;;;;5073276;28;19992;-75
2021/12/03 13:08:21;;;;;;;;;;;;;;;;;;5093911;28;20306;-80
2021/12/03 14:01:55;;;;;;;;;;;;;;;;;;5092589;28;20247;-76
2021/12/03 14:10:46;;;;;;;;;;;;;;;;;;5092123;28;19989;-66
2021/12/03 14:17:15;;;;;;;;;;;;;;;;;;5091844;28;19962;-69
2021/12/03 14:51:05;;;;;;;;;;;;;;;;;;5092181;28;19904;-78
2021/12/03 14:56:15;;;;;;;;;;;;;;;;;;5091879;28;20268;-72
2021/12/03 15:01:25;;;;;;;;;;;;;;;;;;5112112;28;20049;-79
2021/12/03 15:06:57;;;;;;;;;;;;;;;;;;5061074;28;20425;-68
2021/12/03 15:09:31;;;;;;;;;;;;;;;;;;5084544;28;19915;-69
2021/12/03 15:25:55;;;;;;;;;;;;;;;;;;5082938;28;19911;-69
2021/12/03 15:34:21;;;;;;;;;;;;;;;;;;5115857;28;20298;-73
2021/12/03 15:39:18;;;;;;;;;;;;;;;;;;5115127;28;19947;-65
2021/12/03 16:04:00;;;;;;;;;;;;;;;;;;5114866;28;20495;-67
2021/12/03 16:06:47;;;;;;;;;;;;;;;;;;5096896;28;19903;-71
2021/12/03 16:17:38;;;;;;;;;;;;;;;;;;5115017;28;20326;-64
2021/12/03 16:52:33;;;;;;;;;;;;;;;;;;5114090;28;20281;-64
2021/12/03 16:55:00;;;;;;;;;;;;;;;;;;5095731;28;19904;-64
2021/12/03 16:57:37;;;;;;;;;;;;;;;;;;5095859;28;20378;-65
2021/12/03 17:00:09;;;;;;;;;;;;;;;;;;5114100;28;20397;-65
2021/12/03 17:02:41;;;;;;;;;;;;;;;;;;5113759;28;20374;-63
2021/12/03 17:06:28;;;;;;;;;;;;;;;;;;5113915;28;20369;-65
2021/12/03 17:54:38;;;;;;;;;;;;;;;;;;5113225;28;19910;-71
2021/12/03 17:57:04;;;;;;;;;;;;;;;;;;5112185;28;19916;-65
2021/12/03 17:59:38;;;;;;;;;;;;;;;;;;5094641;28;19903;-66
2021/12/03 18:53:02;;;;;;;;;;;;;;;;;;5112706;28;19912;-67
2021/12/03 18:58:00;;;;;;;;;;;;;;;;;;5109181;28;19922;-66
2021/12/03 19:00:28;;;;;;;;;;;;;;;;;;5093573;28;19904;-72
2021/12/03 19:02:56;;;;;;;;;;;;;;;;;;5094016;28;19906;-71
2021/12/03 19:06:12;;;;;;;;;;;;;;;;;;5093836;28;19907;-71
2021/12/03 19:08:19;;;;;;;;;;;;;;;;;;5103484;28;19900;-74
2021/12/03 19:10:47;;;;;;;;;;;;;;;;;;5112669;28;19903;-71
2021/12/03 19:13:17;;;;;;;;;;;;;;;;;;5112525;28;19900;-72
2021/12/03 19:15:44;;;;;;;;;;;;;;;;;;5112694;28;19915;-73
2021/12/03 19:18:10;;;;;;;;;;;;;;;;;;5112793;28;19907;-70
2021/12/03 19:20:40;;;;;;;;;;;;;;;;;;5112766;28;20415;-73
2021/12/03 19:23:06;;;;;;;;;;;;;;;;;;5112313;28;19911;-72
2021/12/03 19:25:32;;;;;;;;;;;;;;;;;;5094314;28;20480;-66
2021/12/03 19:27:58;;;;;;;;;;;;;;;;;;5112609;28;19912;-65
2021/12/03 19:30:24;;;;;;;;;;;;;;;;;;5112874;28;20346;-63
2021/12/03 19:32:50;;;;;;;;;;;;;;;;;;5094525;28;19949;-64
2021/12/03 19:35:16;;;;;;;;;;;;;;;;;;5094120;28;19947;-64
2021/12/03 19:37:43;;;;;;;;;;;;;;;;;;5112377;28;19915;-72
2021/12/03 19:40:11;;;;;;;;;;;;;;;;;;5112499;28;19925;-63
2021/12/03 19:42:45;;;;;;;;;;;;;;;;;;5112248;28;19965;-64
2021/12/03 19:45:16;;;;;;;;;;;;;;;;;;5112683;28;20303;-64
2021/12/03 19:50:27;;;;;;;;;;;;;;;;;;5116215;28;19911;-65
2021/12/03 19:55:19;;;;;;;;;;;;;;;;;;5116143;28;19904;-66
2021/12/03 19:57:45;;;;;;;;;;;;;;;;;;5097340;28;19911;-64
2021/12/03 20:00:11;;;;;;;;;;;;;;;;;;5115581;28;19965;-71
2021/12/03 20:02:37;;;;;;;;;;;;;;;;;;5115720;28;19910;-65
2021/12/03 20:05:04;;;;;;;;;;;;;;;;;;5096964;28;19907;-73
2021/12/03 20:07:30;;;;;;;;;;;;;;;;;;5115431;28;19907;-72
2021/12/03 20:09:59;;;;;;;;;;;;;;;;;;5115068;28;19911;-74
2021/12/03 20:12:26;;;;;;;;;;;;;;;;;;5114915;28;19907;-74
2021/12/03 20:14:52;;;;;;;;;;;;;;;;;;5115202;28;19957;-63
2021/12/03 20:17:29;;;;;;;;;;;;;;;;;;5115484;28;19912;-64
2021/12/03 20:19:57;;;;;;;;;;;;;;;;;;5115226;28;19904;-64
2021/12/03 20:22:38;;;;;;;;;;;;;;;;;;5115050;28;19899;-74
2021/12/03 20:25:31;;;;;;;;;;;;;;;;;;5115590;28;19903;-65
2021/12/03 20:27:57;;;;;;;;;;;;;;;;;;5114244;28;20436;-75
2021/12/03 20:38:45;;;;;;;;;;;;;;;;;;5115397;28;19904;-75
2021/12/03 20:41:17;;;;;;;;;;;;;;;;;;5115211;28;19914;-63
2021/12/03 20:47:09;;;;;;;;;;;;;;;;;;5059255;28;19966;-66
2021/12/03 20:54:36;;;;;;;;;;;;;;;;;;5115451;28;19903;-75
2021/12/03 21:10:23;;;;;;;;;;;;;;;;;;5114386;28;19957;-75
2021/12/03 21:12:51;;;;;;;;;;;;;;;;;;5114326;28;20416;-70
2021/12/03 21:15:39;;;;;;;;;;;;;;;;;;5114329;28;19923;-66
2021/12/03 21:20:45;;;;;;;;;;;;;;;;;;5114367;28;19904;-74
2021/12/03 21:23:11;;;;;;;;;;;;;;;;;;5114088;28;19999;-73
2021/12/03 21:25:38;;;;;;;;;;;;;;;;;;5114207;28;19903;-74
2021/12/03 21:30:46;;;;;;;;;;;;;;;;;;5114181;28;19904;-72
2021/12/03 21:38:02;;;;;;;;;;;;;;;;;;5114309;28;19904;-72
2021/12/03 21:41:22;;;;;;;;;;;;;;;;;;5113715;28;19904;-72
2021/12/03 21:43:48;;;;;;;;;;;;;;;;;;5095530;28;19948;-67
2021/12/03 21:46:14;;;;;;;;;;;;;;;;;;5113484;28;19908;-74
2021/12/03 21:48:40;;;;;;;;;;;;;;;;;;5113711;28;20010;-74
2021/12/03 21:51:06;;;;;;;;;;;;;;;;;;5113863;28;20008;-71
2021/12/03 21:53:32;;;;;;;;;;;;;;;;;;5109484;28;19907;-72
2021/12/03 21:55:58;;;;;;;;;;;;;;;;;;5113370;28;20362;-75
2021/12/03 21:58:24;;;;;;;;;;;;;;;;;;5113672;28;19903;-68
2021/12/03 22:00:50;;;;;;;;;;;;;;;;;;5113504;28;19911;-65
2021/12/03 22:03:16;;;;;;;;;;;;;;;;;;5113711;28;19903;-65
2021/12/03 22:05:42;;;;;;;;;;;;;;;;;;5113811;28;19904;-69
2021/12/03 22:08:10;;;;;;;;;;;;;;;;;;5113584;28;19904;-65
2021/12/03 22:10:36;;;;;;;;;;;;;;;;;;5105431;28;19904;-74
2021/12/03 22:13:02;;;;;;;;;;;;;;;;;;5113304;28;19907;-74
2021/12/03 22:15:27;;;;;;;;;;;;;;;;;;5113462;28;19939;-74
2021/12/03 22:17:53;;;;;;;;;;;;;;;;;;5113472;28;20389;-75
2021/12/03 22:20:19;;;;;;;;;;;;;;;;;;5113485;28;19943;-68
2021/12/03 22:22:45;;;;;;;;;;;;;;;;;;5113379;28;20381;-73
2021/12/03 22:25:11;;;;;;;;;;;;;;;;;;5113376;28;19904;-62
2021/12/03 22:27:37;;;;;;;;;;;;;;;;;;5098035;28;19904;-66
2021/12/03 22:30:03;;;;;;;;;;;;;;;;;;5094797;28;19908;-62
2021/12/03 22:32:29;;;;;;;;;;;;;;;;;;5113110;28;20271;-62
2021/12/03 22:34:55;;;;;;;;;;;;;;;;;;5113055;28;19911;-61
2021/12/03 22:37:21;;;;;;;;;;;;;;;;;;5094741;28;19915;-64
2021/12/03 22:39:47;;;;;;;;;;;;;;;;;;5094948;28;20458;-62
2021/12/03 22:42:13;;;;;;;;;;;;;;;;;;5113334;28;19910;-65
2021/12/03 22:44:39;;;;;;;;;;;;;;;;;;5098536;28;20270;-66
2021/12/03 22:52:15;;;;;;;;;;;;;;;;;;5113071;28;19904;-66
2021/12/03 22:54:42;;;;;;;;;;;;;;;;;;5112824;28;20385;-67
2021/12/03 22:57:08;;;;;;;;;;;;;;;;;;5113086;28;19911;-75
2021/12/03 22:59:35;;;;;;;;;;;;;;;;;;5094746;28;20569;-74
2021/12/03 23:02:02;;;;;;;;;;;;;;;;;;5112683;28;19904;-64
2021/12/03 23:04:28;;;;;;;;;;;;;;;;;;5112081;28;19904;-65
2021/12/03 23:06:54;;;;;;;;;;;;;;;;;;5093881;28;19904;-69
2021/12/03 23:09:20;;;;;;;;;;;;;;;;;;5112007;28;19950;-72
2021/12/03 23:11:46;;;;;;;;;;;;;;;;;;5094135;28;19903;-64
2021/12/03 23:14:13;;;;;;;;;;;;;;;;;;5110430;28;19930;-73
2021/12/03 23:16:39;;;;;;;;;;;;;;;;;;5111440;28;19912;-65
2021/12/03 23:19:05;;;;;;;;;;;;;;;;;;5111579;28;20319;-69
2021/12/03 23:21:30;;;;;;;;;;;;;;;;;;5111220;28;20373;-70
2021/12/03 23:23:56;;;;;;;;;;;;;;;;;;5098754;28;19957;-64
2021/12/03 23:26:22;;;;;;;;;;;;;;;;;;5114919;28;19950;-68
2021/12/03 23:28:49;;;;;;;;;;;;;;;;;;5115114;28;19914;-68
2021/12/03 23:31:15;;;;;;;;;;;;;;;;;;5111551;28;19908;-68
2021/12/03 23:33:41;;;;;;;;;;;;;;;;;;5095304;28;19907;-65
2021/12/03 23:36:14;;;;;;;;;;;;;;;;;;5114144;28;20022;-74
2021/12/03 23:38:40;;;;;;;;;;;;;;;;;;5114441;28;19904;-68
2021/12/03 23:41:06;;;;;;;;;;;;;;;;;;5114124;28;20403;-67
2021/12/03 23:43:32;;;;;;;;;;;;;;;;;;5115394;28;19927;-69
2021/12/03 23:45:57;;;;;;;;;;;;;;;;;;5097647;28;20006;-74
2021/12/03 23:48:23;;;;;;;;;;;;;;;;;;5116400;28;19998;-71
2021/12/03 23:50:49;;;;;;;;;;;;;;;;;;5116147;28;19998;-73
2021/12/03 23:53:15;;;;;;;;;;;;;;;;;;5115745;28;20327;-73
2021/12/03 23:55:41;;;;;;;;;;;;;;;;;;5115694;28;20363;-64
2021/12/03 23:58:07;;;;;;;;;;;;;;;;;;5115911;28;19943;-74
